Angel Albino Corzo International Airport

METAR MMTG TAF MMTG
21 °C
°C
-
°C
33m
Age
16:28:25
LT
15:28
UTC
0 ft

2,000

4,000

6,000

8,000

10,000

SCT 2,000
OVC 6,000
VFR
<?= Yii::t('app', 'Wind direction') ?> <?= Yii::t('app', 'of'); ?>
360°
18:09
Sunset
64%
Humidity
Wind shear
Closed/Snow
RWY visual range
RWY condition
Vert. visibility
Min. visibility
CAVOK
Trend
Correction
Special report
30.20 inHg
QNH
METAR MMTG 041455Z 36010G26KT 8SM SCT020 OVC060 21/14 A3020 RMK SLP203 52010 915 8/62/ ST OVR MT
Overcast
5 kt
5 kt
09:00
MVFR
10 kt
10:00
VFR
10 kt
11:00
VFR
10 kt
12:00
VFR
15 kt
13:00
VFR
15 kt
14:00
VFR
15 kt
15:00
MVFR
15 kt
8 mi
Visibility
6,000 ft
Ceiling
10-26 kt
Wind
metar-taf.com/MMTG

Metar-Taf.com

Visual decoder

We and third parties follow your internet behavior on our website with cookies. If you continue, we assume you agree with our cookie policy.